sensor_id;sensor_type;location;lat;lon;timestamp;P1;durP1;ratioP1;P2;durP2;ratioP2
20711;SDS011;10517;50.742;4.224;2023-07-29T00:01:05;2.10;;;2.00;;
20711;SDS011;10517;50.742;4.224;2023-07-29T00:03:31;2.03;;;1.80;;
20711;SDS011;10517;50.742;4.224;2023-07-29T00:05:57;2.58;;;1.70;;
20711;SDS011;10517;50.742;4.224;2023-07-29T00:08:23;4.60;;;1.83;;
20711;SDS011;10517;50.742;4.224;2023-07-29T00:10:48;2.85;;;1.95;;
20711;SDS011;10517;50.742;4.224;2023-07-29T00:13:14;2.35;;;1.85;;
20711;SDS011;10517;50.742;4.224;2023-07-29T00:15:39;3.97;;;1.83;;
20711;SDS011;10517;50.742;4.224;2023-07-29T00:18:05;2.00;;;1.88;;
20711;SDS011;10517;50.742;4.224;2023-07-29T00:20:30;5.75;;;1.95;;
20711;SDS011;10517;50.742;4.224;2023-07-29T00:22:56;2.20;;;2.00;;
20711;SDS011;10517;50.742;4.224;2023-07-29T00:25:23;1.90;;;1.80;;
20711;SDS011;10517;50.742;4.224;2023-07-29T00:27:49;2.50;;;1.98;;
20711;SDS011;10517;50.742;4.224;2023-07-29T00:30:14;3.25;;;2.03;;
20711;SDS011;10517;50.742;4.224;2023-07-29T00:32:40;3.83;;;2.10;;
20711;SDS011;10517;50.742;4.224;2023-07-29T00:35:05;1.85;;;1.75;;
20711;SDS011;10517;50.742;4.224;2023-07-29T00:37:32;2.22;;;2.00;;
20711;SDS011;10517;50.742;4.224;2023-07-29T00:39:57;1.80;;;1.70;;
20711;SDS011;10517;50.742;4.224;2023-07-29T00:42:23;2.25;;;2.05;;
20711;SDS011;10517;50.742;4.224;2023-07-29T00:44:49;2.42;;;1.90;;
20711;SDS011;10517;50.742;4.224;2023-07-29T00:47:15;3.13;;;2.33;;
20711;SDS011;10517;50.742;4.224;2023-07-29T00:49:44;2.10;;;1.92;;
20711;SDS011;10517;50.742;4.224;2023-07-29T00:52:11;2.42;;;1.80;;
20711;SDS011;10517;50.742;4.224;2023-07-29T00:54:38;6.63;;;1.80;;
20711;SDS011;10517;50.742;4.224;2023-07-29T00:57:04;1.88;;;1.77;;
20711;SDS011;10517;50.742;4.224;2023-07-29T00:59:31;3.63;;;1.90;;
20711;SDS011;10517;50.742;4.224;2023-07-29T01:01:58;2.55;;;2.15;;
20711;SDS011;10517;50.742;4.224;2023-07-29T01:04:24;2.10;;;2.00;;
20711;SDS011;10517;50.742;4.224;2023-07-29T01:09:48;2.40;;;2.13;;
20711;SDS011;10517;50.742;4.224;2023-07-29T01:15:33;2.10;;;1.98;;
20711;SDS011;10517;50.742;4.224;2023-07-29T01:18:14;4.60;;;1.90;;
20711;SDS011;10517;50.742;4.224;2023-07-29T01:20:45;2.25;;;2.15;;
20711;SDS011;10517;50.742;4.224;2023-07-29T01:23:12;4.60;;;2.35;;
20711;SDS011;10517;50.742;4.224;2023-07-29T01:25:38;2.58;;;2.10;;
20711;SDS011;10517;50.742;4.224;2023-07-29T01:28:04;2.40;;;2.20;;
20711;SDS011;10517;50.742;4.224;2023-07-29T01:30:30;9.48;;;2.40;;
20711;SDS011;10517;50.742;4.224;2023-07-29T01:33:17;2.70;;;2.60;;
20711;SDS011;10517;50.742;4.224;2023-07-29T01:36:03;3.72;;;2.20;;
20711;SDS011;10517;50.742;4.224;2023-07-29T01:38:34;4.53;;;2.30;;
20711;SDS011;10517;50.742;4.224;2023-07-29T01:41:04;3.45;;;2.58;;
20711;SDS011;10517;50.742;4.224;2023-07-29T01:43:33;2.35;;;2.15;;
20711;SDS011;10517;50.742;4.224;2023-07-29T01:46:02;2.85;;;2.50;;
20711;SDS011;10517;50.742;4.224;2023-07-29T01:48:27;5.00;;;2.35;;
20711;SDS011;10517;50.742;4.224;2023-07-29T01:50:55;3.03;;;2.53;;
20711;SDS011;10517;50.742;4.224;2023-07-29T01:53:21;3.70;;;2.50;;
20711;SDS011;10517;50.742;4.224;2023-07-29T01:55:46;2.35;;;2.15;;
20711;SDS011;10517;50.742;4.224;2023-07-29T01:58:12;5.03;;;2.10;;
20711;SDS011;10517;50.742;4.224;2023-07-29T02:00:39;2.10;;;2.00;;
20711;SDS011;10517;50.742;4.224;2023-07-29T02:03:05;2.75;;;2.40;;
20711;SDS011;10517;50.742;4.224;2023-07-29T02:05:30;2.83;;;2.63;;
20711;SDS011;10517;50.742;4.224;2023-07-29T02:07:56;2.45;;;2.28;;
20711;SDS011;10517;50.742;4.224;2023-07-29T02:10:21;2.17;;;2.08;;
20711;SDS011;10517;50.742;4.224;2023-07-29T02:12:47;2.10;;;1.98;;
20711;SDS011;10517;50.742;4.224;2023-07-29T02:15:12;1.98;;;1.88;;
20711;SDS011;10517;50.742;4.224;2023-07-29T02:17:41;2.55;;;2.35;;
20711;SDS011;10517;50.742;4.224;2023-07-29T02:20:07;4.38;;;2.30;;
20711;SDS011;10517;50.742;4.224;2023-07-29T02:22:33;2.10;;;2.00;;
20711;SDS011;10517;50.742;4.224;2023-07-29T02:24:59;5.50;;;2.40;;
20711;SDS011;10517;50.742;4.224;2023-07-29T02:27:26;2.00;;;1.90;;
20711;SDS011;10517;50.742;4.224;2023-07-29T02:29:52;3.30;;;2.33;;
20711;SDS011;10517;50.742;4.224;2023-07-29T02:32:18;2.08;;;1.98;;
20711;SDS011;10517;50.742;4.224;2023-07-29T02:34:44;2.45;;;2.25;;
20711;SDS011;10517;50.742;4.224;2023-07-29T02:37:09;3.25;;;2.20;;
20711;SDS011;10517;50.742;4.224;2023-07-29T02:39:35;2.40;;;2.20;;
20711;SDS011;10517;50.742;4.224;2023-07-29T02:42:01;3.95;;;2.17;;
20711;SDS011;10517;50.742;4.224;2023-07-29T02:44:27;3.67;;;2.40;;
20711;SDS011;10517;50.742;4.224;2023-07-29T02:46:52;2.33;;;2.13;;
20711;SDS011;10517;50.742;4.224;2023-07-29T02:49:20;2.42;;;2.33;;
20711;SDS011;10517;50.742;4.224;2023-07-29T02:51:46;2.33;;;2.22;;
20711;SDS011;10517;50.742;4.224;2023-07-29T02:54:12;4.07;;;1.92;;
20711;SDS011;10517;50.742;4.224;2023-07-29T02:56:37;3.50;;;2.35;;
20711;SDS011;10517;50.742;4.224;2023-07-29T02:59:03;2.83;;;2.30;;
20711;SDS011;10517;50.742;4.224;2023-07-29T03:01:30;3.70;;;2.20;;
20711;SDS011;10517;50.742;4.224;2023-07-29T03:03:55;2.20;;;2.10;;
20711;SDS011;10517;50.742;4.224;2023-07-29T03:06:21;2.13;;;2.00;;
20711;SDS011;10517;50.742;4.224;2023-07-29T03:08:47;2.38;;;2.17;;
20711;SDS011;10517;50.742;4.224;2023-07-29T03:11:13;2.20;;;2.08;;
20711;SDS011;10517;50.742;4.224;2023-07-29T03:13:40;2.55;;;2.35;;
20711;SDS011;10517;50.742;4.224;2023-07-29T03:16:06;2.33;;;2.13;;
20711;SDS011;10517;50.742;4.224;2023-07-29T03:18:33;2.58;;;1.90;;
20711;SDS011;10517;50.742;4.224;2023-07-29T03:20:59;2.00;;;1.83;;
20711;SDS011;10517;50.742;4.224;2023-07-29T03:23:24;2.95;;;2.25;;
20711;SDS011;10517;50.742;4.224;2023-07-29T03:25:50;2.35;;;2.25;;
20711;SDS011;10517;50.742;4.224;2023-07-29T03:28:21;4.80;;;2.05;;
20711;SDS011;10517;50.742;4.224;2023-07-29T03:30:48;3.67;;;2.00;;
20711;SDS011;10517;50.742;4.224;2023-07-29T03:33:14;6.03;;;2.20;;
20711;SDS011;10517;50.742;4.224;2023-07-29T03:35:39;1.98;;;1.88;;
20711;SDS011;10517;50.742;4.224;2023-07-29T03:38:05;5.47;;;1.98;;
20711;SDS011;10517;50.742;4.224;2023-07-29T03:40:30;2.00;;;1.90;;
20711;SDS011;10517;50.742;4.224;2023-07-29T03:42:56;2.20;;;2.08;;
20711;SDS011;10517;50.742;4.224;2023-07-29T03:45:22;4.10;;;2.08;;
20711;SDS011;10517;50.742;4.224;2023-07-29T03:47:47;2.00;;;1.90;;
20711;SDS011;10517;50.742;4.224;2023-07-29T03:50:13;1.77;;;1.67;;
20711;SDS011;10517;50.742;4.224;2023-07-29T03:52:38;2.10;;;2.00;;
20711;SDS011;10517;50.742;4.224;2023-07-29T03:55:04;4.53;;;1.92;;
20711;SDS011;10517;50.742;4.224;2023-07-29T03:57:30;5.00;;;2.35;;
20711;SDS011;10517;50.742;4.224;2023-07-29T03:59:56;2.35;;;2.15;;
20711;SDS011;10517;50.742;4.224;2023-07-29T04:02:21;2.85;;;2.40;;
20711;SDS011;10517;50.742;4.224;2023-07-29T04:04:47;2.25;;;2.05;;
20711;SDS011;10517;50.742;4.224;2023-07-29T04:07:13;2.45;;;2.13;;
20711;SDS011;10517;50.742;4.224;2023-07-29T04:09:39;2.00;;;1.80;;
20711;SDS011;10517;50.742;4.224;2023-07-29T04:12:05;2.92;;;2.20;;
20711;SDS011;10517;50.742;4.224;2023-07-29T04:14:30;3.67;;;2.72;;
20711;SDS011;10517;50.742;4.224;2023-07-29T04:16:56;2.17;;;2.05;;
20711;SDS011;10517;50.742;4.224;2023-07-29T04:19:22;2.90;;;1.90;;
20711;SDS011;10517;50.742;4.224;2023-07-29T04:21:47;6.68;;;2.65;;
20711;SDS011;10517;50.742;4.224;2023-07-29T04:24:13;2.47;;;2.28;;
20711;SDS011;10517;50.742;4.224;2023-07-29T04:26:38;2.30;;;2.00;;
20711;SDS011;10517;50.742;4.224;2023-07-29T04:29:04;2.92;;;2.72;;
20711;SDS011;10517;50.742;4.224;2023-07-29T04:31:30;1.95;;;1.83;;
20711;SDS011;10517;50.742;4.224;2023-07-29T04:33:55;2.30;;;2.10;;
20711;SDS011;10517;50.742;4.224;2023-07-29T04:36:21;3.70;;;2.30;;
20711;SDS011;10517;50.742;4.224;2023-07-29T04:38:47;2.85;;;2.03;;
20711;SDS011;10517;50.742;4.224;2023-07-29T04:41:12;3.28;;;2.40;;
20711;SDS011;10517;50.742;4.224;2023-07-29T04:43:38;4.22;;;1.83;;
20711;SDS011;10517;50.742;4.224;2023-07-29T04:46:06;1.90;;;1.80;;
20711;SDS011;10517;50.742;4.224;2023-07-29T04:48:32;3.45;;;1.85;;
20711;SDS011;10517;50.742;4.224;2023-07-29T04:50:58;3.50;;;2.00;;
20711;SDS011;10517;50.742;4.224;2023-07-29T04:53:23;2.00;;;1.90;;
20711;SDS011;10517;50.742;4.224;2023-07-29T04:55:49;2.63;;;1.70;;
20711;SDS011;10517;50.742;4.224;2023-07-29T04:58:15;3.63;;;2.00;;
20711;SDS011;10517;50.742;4.224;2023-07-29T05:00:40;2.55;;;2.15;;
20711;SDS011;10517;50.742;4.224;2023-07-29T05:03:06;1.73;;;1.63;;
20711;SDS011;10517;50.742;4.224;2023-07-29T05:05:32;2.17;;;1.80;;
20711;SDS011;10517;50.742;4.224;2023-07-29T05:07:57;4.10;;;2.25;;
20711;SDS011;10517;50.742;4.224;2023-07-29T05:10:23;2.22;;;2.13;;
20711;SDS011;10517;50.742;4.224;2023-07-29T05:12:48;2.10;;;1.77;;
20711;SDS011;10517;50.742;4.224;2023-07-29T05:15:14;3.33;;;1.90;;
20711;SDS011;10517;50.742;4.224;2023-07-29T05:17:40;3.20;;;2.08;;
20711;SDS011;10517;50.742;4.224;2023-07-29T05:20:06;2.42;;;1.90;;
20711;SDS011;10517;50.742;4.224;2023-07-29T05:22:32;2.25;;;1.80;;
20711;SDS011;10517;50.742;4.224;2023-07-29T05:24:57;2.00;;;1.90;;
20711;SDS011;10517;50.742;4.224;2023-07-29T05:27:23;5.13;;;2.17;;
20711;SDS011;10517;50.742;4.224;2023-07-29T05:29:48;2.13;;;1.92;;
20711;SDS011;10517;50.742;4.224;2023-07-29T05:32:14;2.00;;;1.80;;
20711;SDS011;10517;50.742;4.224;2023-07-29T05:34:39;1.63;;;1.52;;
20711;SDS011;10517;50.742;4.224;2023-07-29T05:37:05;1.95;;;1.70;;
20711;SDS011;10517;50.742;4.224;2023-07-29T05:39:31;3.10;;;2.08;;
20711;SDS011;10517;50.742;4.224;2023-07-29T05:41:57;2.03;;;1.80;;
20711;SDS011;10517;50.742;4.224;2023-07-29T05:44:22;3.63;;;1.75;;
20711;SDS011;10517;50.742;4.224;2023-07-29T05:46:48;1.60;;;1.50;;
20711;SDS011;10517;50.742;4.224;2023-07-29T05:49:14;2.20;;;2.00;;
20711;SDS011;10517;50.742;4.224;2023-07-29T05:51:39;2.03;;;1.92;;
20711;SDS011;10517;50.742;4.224;2023-07-29T05:54:05;1.67;;;1.58;;
20711;SDS011;10517;50.742;4.224;2023-07-29T05:56:30;3.58;;;1.50;;
20711;SDS011;10517;50.742;4.224;2023-07-29T05:58:56;1.38;;;1.38;;
20711;SDS011;10517;50.742;4.224;2023-07-29T06:01:22;1.65;;;1.50;;
20711;SDS011;10517;50.742;4.224;2023-07-29T06:03:48;2.58;;;1.80;;
20711;SDS011;10517;50.742;4.224;2023-07-29T06:06:13;2.83;;;1.48;;
20711;SDS011;10517;50.742;4.224;2023-07-29T06:08:39;1.65;;;1.55;;
20711;SDS011;10517;50.742;4.224;2023-07-29T06:11:04;1.88;;;1.77;;
20711;SDS011;10517;50.742;4.224;2023-07-29T06:13:33;1.80;;;1.70;;
20711;SDS011;10517;50.742;4.224;2023-07-29T06:15:58;1.92;;;1.75;;
20711;SDS011;10517;50.742;4.224;2023-07-29T06:18:24;3.22;;;1.70;;
20711;SDS011;10517;50.742;4.224;2023-07-29T06:20:50;1.63;;;1.38;;
20711;SDS011;10517;50.742;4.224;2023-07-29T06:23:16;2.78;;;1.85;;
20711;SDS011;10517;50.742;4.224;2023-07-29T06:25:41;2.45;;;1.55;;
20711;SDS011;10517;50.742;4.224;2023-07-29T06:28:08;2.80;;;1.88;;
20711;SDS011;10517;50.742;4.224;2023-07-29T06:30:34;3.33;;;1.52;;
20711;SDS011;10517;50.742;4.224;2023-07-29T06:33:00;1.67;;;1.58;;
20711;SDS011;10517;50.742;4.224;2023-07-29T06:35:25;1.55;;;1.45;;
20711;SDS011;10517;50.742;4.224;2023-07-29T06:37:51;1.60;;;1.50;;
20711;SDS011;10517;50.742;4.224;2023-07-29T06:40:16;1.70;;;1.60;;
20711;SDS011;10517;50.742;4.224;2023-07-29T06:42:42;4.55;;;2.50;;
20711;SDS011;10517;50.742;4.224;2023-07-29T06:45:07;1.65;;;1.55;;
20711;SDS011;10517;50.742;4.224;2023-07-29T06:47:33;2.22;;;1.80;;
20711;SDS011;10517;50.742;4.224;2023-07-29T06:49:59;2.00;;;1.50;;
20711;SDS011;10517;50.742;4.224;2023-07-29T06:52:25;2.05;;;1.50;;
20711;SDS011;10517;50.742;4.224;2023-07-29T06:54:51;2.38;;;1.63;;
20711;SDS011;10517;50.742;4.224;2023-07-29T06:57:16;2.28;;;1.50;;
20711;SDS011;10517;50.742;4.224;2023-07-29T06:59:42;1.58;;;1.48;;
20711;SDS011;10517;50.742;4.224;2023-07-29T07:02:07;1.67;;;1.58;;
20711;SDS011;10517;50.742;4.224;2023-07-29T07:04:33;1.75;;;1.65;;
20711;SDS011;10517;50.742;4.224;2023-07-29T07:06:58;1.98;;;1.77;;
20711;SDS011;10517;50.742;4.224;2023-07-29T07:09:24;1.45;;;1.40;;
20711;SDS011;10517;50.742;4.224;2023-07-29T07:11:49;1.45;;;1.35;;
20711;SDS011;10517;50.742;4.224;2023-07-29T07:14:15;1.60;;;1.50;;
20711;SDS011;10517;50.742;4.224;2023-07-29T07:16:41;2.97;;;1.65;;
20711;SDS011;10517;50.742;4.224;2023-07-29T07:19:06;1.92;;;1.55;;
20711;SDS011;10517;50.742;4.224;2023-07-29T07:21:32;1.65;;;1.55;;
20711;SDS011;10517;50.742;4.224;2023-07-29T07:23:57;1.70;;;1.60;;
20711;SDS011;10517;50.742;4.224;2023-07-29T07:26:23;1.60;;;1.50;;
20711;SDS011;10517;50.742;4.224;2023-07-29T07:28:49;1.55;;;1.50;;
20711;SDS011;10517;50.742;4.224;2023-07-29T07:31:16;3.25;;;1.55;;
20711;SDS011;10517;50.742;4.224;2023-07-29T07:33:42;1.75;;;1.23;;
20711;SDS011;10517;50.742;4.224;2023-07-29T07:36:07;2.67;;;1.40;;
20711;SDS011;10517;50.742;4.224;2023-07-29T07:38:33;1.70;;;1.60;;
20711;SDS011;10517;50.742;4.224;2023-07-29T07:40:58;1.40;;;1.30;;
20711;SDS011;10517;50.742;4.224;2023-07-29T07:43:24;1.70;;;1.60;;
20711;SDS011;10517;50.742;4.224;2023-07-29T07:45:50;1.40;;;1.30;;
20711;SDS011;10517;50.742;4.224;2023-07-29T07:48:16;3.10;;;1.70;;
20711;SDS011;10517;50.742;4.224;2023-07-29T07:50:42;1.55;;;1.50;;
20711;SDS011;10517;50.742;4.224;2023-07-29T07:53:08;1.92;;;1.77;;
20711;SDS011;10517;50.742;4.224;2023-07-29T07:55:34;1.58;;;1.48;;
20711;SDS011;10517;50.742;4.224;2023-07-29T07:57:59;1.80;;;1.70;;
20711;SDS011;10517;50.742;4.224;2023-07-29T08:00:25;1.75;;;1.60;;
20711;SDS011;10517;50.742;4.224;2023-07-29T08:02:50;3.22;;;2.00;;
20711;SDS011;10517;50.742;4.224;2023-07-29T08:05:16;1.90;;;1.80;;
20711;SDS011;10517;50.742;4.224;2023-07-29T08:07:43;2.92;;;1.85;;
20711;SDS011;10517;50.742;4.224;2023-07-29T08:10:08;2.05;;;1.95;;
20711;SDS011;10517;50.742;4.224;2023-07-29T08:12:34;1.75;;;1.67;;
20711;SDS011;10517;50.742;4.224;2023-07-29T08:15:00;2.10;;;2.00;;
20711;SDS011;10517;50.742;4.224;2023-07-29T08:17:25;1.92;;;1.83;;
20711;SDS011;10517;50.742;4.224;2023-07-29T08:19:51;2.17;;;2.08;;
20711;SDS011;10517;50.742;4.224;2023-07-29T08:22:16;2.78;;;2.58;;
20711;SDS011;10517;50.742;4.224;2023-07-29T08:24:42;2.10;;;1.98;;
20711;SDS011;10517;50.742;4.224;2023-07-29T08:27:08;2.78;;;2.00;;
20711;SDS011;10517;50.742;4.224;2023-07-29T08:29:33;2.10;;;2.00;;
20711;SDS011;10517;50.742;4.224;2023-07-29T08:31:59;4.10;;;2.17;;
20711;SDS011;10517;50.742;4.224;2023-07-29T08:34:25;3.53;;;2.50;;
20711;SDS011;10517;50.742;4.224;2023-07-29T08:36:50;2.42;;;2.33;;
20711;SDS011;10517;50.742;4.224;2023-07-29T08:39:16;2.63;;;2.42;;
20711;SDS011;10517;50.742;4.224;2023-07-29T08:42:01;2.50;;;2.40;;
20711;SDS011;10517;50.742;4.224;2023-07-29T08:44:30;2.40;;;2.20;;
20711;SDS011;10517;50.742;4.224;2023-07-29T08:47:00;2.47;;;2.28;;
20711;SDS011;10517;50.742;4.224;2023-07-29T08:49:26;2.95;;;2.50;;
20711;SDS011;10517;50.742;4.224;2023-07-29T08:51:53;2.65;;;2.55;;
20711;SDS011;10517;50.742;4.224;2023-07-29T08:54:19;2.20;;;2.10;;
20711;SDS011;10517;50.742;4.224;2023-07-29T08:56:45;2.47;;;2.15;;
20711;SDS011;10517;50.742;4.224;2023-07-29T08:59:11;2.33;;;2.20;;
20711;SDS011;10517;50.742;4.224;2023-07-29T09:01:38;2.33;;;2.22;;
20711;SDS011;10517;50.742;4.224;2023-07-29T09:04:04;2.45;;;2.25;;
20711;SDS011;10517;50.742;4.224;2023-07-29T09:06:32;2.60;;;2.50;;
20711;SDS011;10517;50.742;4.224;2023-07-29T09:09:00;2.70;;;2.50;;
20711;SDS011;10517;50.742;4.224;2023-07-29T09:11:27;2.90;;;2.70;;
20711;SDS011;10517;50.742;4.224;2023-07-29T09:13:53;4.03;;;2.78;;
20711;SDS011;10517;50.742;4.224;2023-07-29T09:16:19;3.03;;;2.90;;
20711;SDS011;10517;50.742;4.224;2023-07-29T09:18:47;2.63;;;2.50;;
20711;SDS011;10517;50.742;4.224;2023-07-29T09:21:15;3.10;;;2.90;;
20711;SDS011;10517;50.742;4.224;2023-07-29T09:23:43;3.10;;;2.78;;
20711;SDS011;10517;50.742;4.224;2023-07-29T09:26:09;3.05;;;2.85;;
20711;SDS011;10517;50.742;4.224;2023-07-29T09:28:37;2.97;;;2.88;;
20711;SDS011;10517;50.742;4.224;2023-07-29T09:31:04;3.13;;;3.03;;
20711;SDS011;10517;50.742;4.224;2023-07-29T09:33:32;3.53;;;3.22;;
20711;SDS011;10517;50.742;4.224;2023-07-29T09:36:01;2.97;;;2.88;;
20711;SDS011;10517;50.742;4.224;2023-07-29T09:38:36;2.88;;;2.78;;
20711;SDS011;10517;50.742;4.224;2023-07-29T09:41:02;3.03;;;2.92;;
20711;SDS011;10517;50.742;4.224;2023-07-29T09:43:32;3.03;;;2.83;;
20711;SDS011;10517;50.742;4.224;2023-07-29T09:46:03;2.95;;;2.75;;
20711;SDS011;10517;50.742;4.224;2023-07-29T09:48:35;3.20;;;3.00;;
20711;SDS011;10517;50.742;4.224;2023-07-29T09:51:11;3.50;;;3.30;;
20711;SDS011;10517;50.742;4.224;2023-07-29T09:53:44;3.33;;;3.05;;
20711;SDS011;10517;50.742;4.224;2023-07-29T09:56:14;3.30;;;3.10;;
20711;SDS011;10517;50.742;4.224;2023-07-29T09:58:42;3.22;;;3.03;;
20711;SDS011;10517;50.742;4.224;2023-07-29T10:01:13;3.58;;;3.35;;
20711;SDS011;10517;50.742;4.224;2023-07-29T10:03:39;4.18;;;3.78;;
20711;SDS011;10517;50.742;4.224;2023-07-29T10:06:05;3.92;;;3.60;;
20711;SDS011;10517;50.742;4.224;2023-07-29T10:08:32;3.88;;;3.60;;
20711;SDS011;10517;50.742;4.224;2023-07-29T10:11:04;4.82;;;4.22;;
20711;SDS011;10517;50.742;4.224;2023-07-29T10:13:31;6.38;;;4.72;;
20711;SDS011;10517;50.742;4.224;2023-07-29T10:15:58;4.70;;;4.35;;
20711;SDS011;10517;50.742;4.224;2023-07-29T10:18:24;4.78;;;4.47;;
20711;SDS011;10517;50.742;4.224;2023-07-29T10:20:51;4.38;;;4.07;;
20711;SDS011;10517;50.742;4.224;2023-07-29T10:23:18;3.95;;;3.58;;
20711;SDS011;10517;50.742;4.224;2023-07-29T10:26:06;3.60;;;3.30;;
20711;SDS011;10517;50.742;4.224;2023-07-29T10:28:34;3.55;;;3.25;;
20711;SDS011;10517;50.742;4.224;2023-07-29T10:31:05;3.63;;;3.33;;
20711;SDS011;10517;50.742;4.224;2023-07-29T10:33:31;3.45;;;3.25;;
20711;SDS011;10517;50.742;4.224;2023-07-29T10:35:58;4.00;;;3.70;;
20711;SDS011;10517;50.742;4.224;2023-07-29T10:38:25;4.00;;;3.60;;
20711;SDS011;10517;50.742;4.224;2023-07-29T10:40:52;5.40;;;4.90;;
20711;SDS011;10517;50.742;4.224;2023-07-29T10:43:24;6.80;;;6.30;;
20711;SDS011;10517;50.742;4.224;2023-07-29T10:45:51;6.70;;;6.20;;
20711;SDS011;10517;50.742;4.224;2023-07-29T10:53:58;5.95;;;4.82;;
20711;SDS011;10517;50.742;4.224;2023-07-29T10:56:32;5.60;;;5.20;;
20711;SDS011;10517;50.742;4.224;2023-07-29T10:59:02;4.95;;;4.45;;
20711;SDS011;10517;50.742;4.224;2023-07-29T11:01:38;4.85;;;4.50;;
20711;SDS011;10517;50.742;4.224;2023-07-29T11:15:17;4.07;;;3.78;;
20711;SDS011;10517;50.742;4.224;2023-07-29T11:20:12;3.53;;;3.33;;
20711;SDS011;10517;50.742;4.224;2023-07-29T11:22:38;3.60;;;3.30;;
20711;SDS011;10517;50.742;4.224;2023-07-29T11:25:04;3.60;;;3.28;;
20711;SDS011;10517;50.742;4.224;2023-07-29T11:27:32;7.88;;;3.30;;
20711;SDS011;10517;50.742;4.224;2023-07-29T11:29:58;3.13;;;2.92;;
20711;SDS011;10517;50.742;4.224;2023-07-29T11:32:24;3.00;;;2.80;;
20711;SDS011;10517;50.742;4.224;2023-07-29T11:34:50;4.88;;;3.13;;
20711;SDS011;10517;50.742;4.224;2023-07-29T11:37:16;3.50;;;3.20;;
20711;SDS011;10517;50.742;4.224;2023-07-29T11:39:42;3.38;;;3.17;;
20711;SDS011;10517;50.742;4.224;2023-07-29T11:42:12;3.25;;;3.05;;
20711;SDS011;10517;50.742;4.224;2023-07-29T11:44:39;3.35;;;3.05;;
20711;SDS011;10517;50.742;4.224;2023-07-29T11:47:08;2.80;;;2.70;;
20711;SDS011;10517;50.742;4.224;2023-07-29T11:49:35;3.72;;;2.67;;
20711;SDS011;10517;50.742;4.224;2023-07-29T11:52:03;2.92;;;2.72;;
20711;SDS011;10517;50.742;4.224;2023-07-29T11:54:30;2.78;;;2.67;;
20711;SDS011;10517;50.742;4.224;2023-07-29T11:56:56;3.05;;;2.85;;
20711;SDS011;10517;50.742;4.224;2023-07-29T11:59:22;3.40;;;3.20;;
20711;SDS011;10517;50.742;4.224;2023-07-29T12:01:48;3.10;;;2.90;;
20711;SDS011;10517;50.742;4.224;2023-07-29T12:04:14;3.42;;;3.22;;
20711;SDS011;10517;50.742;4.224;2023-07-29T12:06:40;3.47;;;3.20;;
20711;SDS011;10517;50.742;4.224;2023-07-29T12:09:06;3.72;;;3.33;;
20711;SDS011;10517;50.742;4.224;2023-07-29T12:11:32;5.10;;;4.88;;
20711;SDS011;10517;50.742;4.224;2023-07-29T12:13:59;6.40;;;5.97;;
20711;SDS011;10517;50.742;4.224;2023-07-29T12:16:25;8.70;;;8.15;;
20711;SDS011;10517;50.742;4.224;2023-07-29T12:18:51;7.70;;;4.45;;
20711;SDS011;10517;50.742;4.224;2023-07-29T12:21:17;5.15;;;4.43;;
20711;SDS011;10517;50.742;4.224;2023-07-29T12:23:44;7.82;;;4.03;;
20711;SDS011;10517;50.742;4.224;2023-07-29T12:26:09;4.90;;;3.80;;
20711;SDS011;10517;50.742;4.224;2023-07-29T12:28:35;4.68;;;4.28;;
20711;SDS011;10517;50.742;4.224;2023-07-29T12:31:01;4.63;;;4.30;;
20711;SDS011;10517;50.742;4.224;2023-07-29T12:33:30;5.18;;;4.53;;
20711;SDS011;10517;50.742;4.224;2023-07-29T12:35:56;6.03;;;4.10;;
20711;SDS011;10517;50.742;4.224;2023-07-29T12:38:22;4.78;;;4.43;;
20711;SDS011;10517;50.742;4.224;2023-07-29T12:40:47;6.13;;;5.05;;
20711;SDS011;10517;50.742;4.224;2023-07-29T12:43:13;5.00;;;4.50;;
20711;SDS011;10517;50.742;4.224;2023-07-29T12:45:38;4.97;;;4.68;;
20711;SDS011;10517;50.742;4.224;2023-07-29T12:48:10;4.65;;;4.32;;
20711;SDS011;10517;50.742;4.224;2023-07-29T12:50:36;4.20;;;3.90;;
20711;SDS011;10517;50.742;4.224;2023-07-29T12:53:04;4.07;;;3.88;;
20711;SDS011;10517;50.742;4.224;2023-07-29T12:55:30;4.85;;;4.00;;
20711;SDS011;10517;50.742;4.224;2023-07-29T12:57:55;4.57;;;4.25;;
20711;SDS011;10517;50.742;4.224;2023-07-29T13:00:23;4.50;;;4.03;;
20711;SDS011;10517;50.742;4.224;2023-07-29T13:02:48;4.22;;;3.80;;
20711;SDS011;10517;50.742;4.224;2023-07-29T13:05:14;4.28;;;3.97;;
20711;SDS011;10517;50.742;4.224;2023-07-29T13:07:39;4.38;;;4.07;;
20711;SDS011;10517;50.742;4.224;2023-07-29T13:10:05;4.25;;;4.05;;
20711;SDS011;10517;50.742;4.224;2023-07-29T13:12:32;4.25;;;4.05;;
20711;SDS011;10517;50.742;4.224;2023-07-29T13:14:57;4.07;;;3.88;;
20711;SDS011;10517;50.742;4.224;2023-07-29T13:17:24;3.78;;;3.42;;
20711;SDS011;10517;50.742;4.224;2023-07-29T13:19:50;4.10;;;3.90;;
20711;SDS011;10517;50.742;4.224;2023-07-29T13:22:16;4.88;;;4.53;;
20711;SDS011;10517;50.742;4.224;2023-07-29T13:24:42;5.00;;;4.78;;
20711;SDS011;10517;50.742;4.224;2023-07-29T13:27:07;5.35;;;5.10;;
20711;SDS011;10517;50.742;4.224;2023-07-29T13:29:33;5.32;;;5.13;;
20711;SDS011;10517;50.742;4.224;2023-07-29T13:31:58;4.40;;;4.20;;
20711;SDS011;10517;50.742;4.224;2023-07-29T13:34:24;5.07;;;4.85;;
20711;SDS011;10517;50.742;4.224;2023-07-29T13:36:49;6.13;;;5.82;;
20711;SDS011;10517;50.742;4.224;2023-07-29T13:39:15;6.95;;;6.65;;
20711;SDS011;10517;50.742;4.224;2023-07-29T13:41:41;7.20;;;6.90;;
20711;SDS011;10517;50.742;4.224;2023-07-29T13:44:07;7.60;;;7.10;;
20711;SDS011;10517;50.742;4.224;2023-07-29T13:46:32;8.43;;;8.13;;
20711;SDS011;10517;50.742;4.224;2023-07-29T13:48:58;6.97;;;6.68;;
20711;SDS011;10517;50.742;4.224;2023-07-29T13:51:24;7.53;;;7.22;;
20711;SDS011;10517;50.742;4.224;2023-07-29T13:53:49;6.88;;;6.57;;
20711;SDS011;10517;50.742;4.224;2023-07-29T13:56:15;6.07;;;5.88;;
20711;SDS011;10517;50.742;4.224;2023-07-29T13:58:40;6.40;;;6.10;;
20711;SDS011;10517;50.742;4.224;2023-07-29T14:01:06;5.93;;;5.63;;
20711;SDS011;10517;50.742;4.224;2023-07-29T14:03:31;6.40;;;6.10;;
20711;SDS011;10517;50.742;4.224;2023-07-29T14:05:57;6.32;;;6.03;;
20711;SDS011;10517;50.742;4.224;2023-07-29T14:08:23;5.85;;;5.65;;
20711;SDS011;10517;50.742;4.224;2023-07-29T14:10:51;5.78;;;5.57;;
20711;SDS011;10517;50.742;4.224;2023-07-29T14:13:17;5.88;;;5.65;;
20711;SDS011;10517;50.742;4.224;2023-07-29T14:15:42;5.68;;;5.47;;
20711;SDS011;10517;50.742;4.224;2023-07-29T14:18:08;5.60;;;5.40;;
20711;SDS011;10517;50.742;4.224;2023-07-29T14:20:34;5.63;;;5.32;;
20711;SDS011;10517;50.742;4.224;2023-07-29T14:22:59;5.32;;;5.03;;
20711;SDS011;10517;50.742;4.224;2023-07-29T14:25:26;5.35;;;5.00;;
20711;SDS011;10517;50.742;4.224;2023-07-29T14:27:52;5.30;;;5.10;;
20711;SDS011;10517;50.742;4.224;2023-07-29T14:30:18;5.30;;;5.00;;
20711;SDS011;10517;50.742;4.224;2023-07-29T14:32:43;5.25;;;5.05;;
20711;SDS011;10517;50.742;4.224;2023-07-29T14:35:09;4.60;;;4.40;;
20711;SDS011;10517;50.742;4.224;2023-07-29T14:37:35;5.10;;;4.90;;
20711;SDS011;10517;50.742;4.224;2023-07-29T14:40:00;5.50;;;5.30;;
20711;SDS011;10517;50.742;4.224;2023-07-29T14:42:26;5.10;;;4.90;;
20711;SDS011;10517;50.742;4.224;2023-07-29T14:44:52;4.60;;;4.40;;
20711;SDS011;10517;50.742;4.224;2023-07-29T14:47:18;4.80;;;4.60;;
20711;SDS011;10517;50.742;4.224;2023-07-29T14:49:44;5.15;;;4.95;;
20711;SDS011;10517;50.742;4.224;2023-07-29T14:52:10;5.20;;;5.00;;
20711;SDS011;10517;50.742;4.224;2023-07-29T14:54:36;4.65;;;4.45;;
20711;SDS011;10517;50.742;4.224;2023-07-29T14:57:01;4.70;;;4.50;;
20711;SDS011;10517;50.742;4.224;2023-07-29T14:59:27;4.90;;;4.60;;
20711;SDS011;10517;50.742;4.224;2023-07-29T15:01:53;5.30;;;5.00;;
20711;SDS011;10517;50.742;4.224;2023-07-29T15:04:19;4.85;;;4.65;;
20711;SDS011;10517;50.742;4.224;2023-07-29T15:06:44;4.82;;;4.63;;
20711;SDS011;10517;50.742;4.224;2023-07-29T15:09:10;5.40;;;5.00;;